sensor_id;sensor_type;location;lat;lon;timestamp;P1;durP1;ratioP1;P2;durP2;ratioP2
13090;SDS011;6611;52.604;13.438;2022-07-22T00:02:03;7.83;;;7.13;;
13090;SDS011;6611;52.604;13.438;2022-07-22T00:04:35;7.47;;;6.77;;
13090;SDS011;6611;52.604;13.438;2022-07-22T00:07:09;7.20;;;6.50;;
13090;SDS011;6611;52.604;13.438;2022-07-22T00:09:41;7.47;;;6.77;;
13090;SDS011;6611;52.604;13.438;2022-07-22T00:12:13;7.20;;;6.50;;
13090;SDS011;6611;52.604;13.438;2022-07-22T00:14:45;6.83;;;6.23;;
13090;SDS011;6611;52.604;13.438;2022-07-22T00:17:17;6.23;;;5.63;;
13090;SDS011;6611;52.604;13.438;2022-07-22T00:19:49;6.80;;;6.20;;
13090;SDS011;6611;52.604;13.438;2022-07-22T00:22:22;6.97;;;6.37;;
13090;SDS011;6611;52.604;13.438;2022-07-22T00:24:54;7.63;;;6.50;;
13090;SDS011;6611;52.604;13.438;2022-07-22T00:27:26;7.60;;;6.87;;
13090;SDS011;6611;52.604;13.438;2022-07-22T00:29:58;7.00;;;6.33;;
13090;SDS011;6611;52.604;13.438;2022-07-22T00:32:31;6.93;;;6.33;;
13090;SDS011;6611;52.604;13.438;2022-07-22T00:35:03;6.37;;;5.87;;
13090;SDS011;6611;52.604;13.438;2022-07-22T00:37:37;6.40;;;5.77;;
13090;SDS011;6611;52.604;13.438;2022-07-22T00:40:09;6.40;;;5.80;;
13090;SDS011;6611;52.604;13.438;2022-07-22T00:42:42;6.87;;;6.27;;
13090;SDS011;6611;52.604;13.438;2022-07-22T00:45:14;7.07;;;6.47;;
13090;SDS011;6611;52.604;13.438;2022-07-22T00:47:46;6.93;;;6.30;;
13090;SDS011;6611;52.604;13.438;2022-07-22T00:50:18;6.53;;;5.90;;
13090;SDS011;6611;52.604;13.438;2022-07-22T00:52:52;6.70;;;6.10;;
13090;SDS011;6611;52.604;13.438;2022-07-22T00:55:24;7.33;;;6.40;;
13090;SDS011;6611;52.604;13.438;2022-07-22T00:57:56;7.43;;;5.80;;
13090;SDS011;6611;52.604;13.438;2022-07-22T01:00:28;6.60;;;6.10;;
13090;SDS011;6611;52.604;13.438;2022-07-22T01:03:00;6.80;;;6.03;;
13090;SDS011;6611;52.604;13.438;2022-07-22T01:05:32;6.37;;;5.77;;
13090;SDS011;6611;52.604;13.438;2022-07-22T01:08:06;6.40;;;5.63;;
13090;SDS011;6611;52.604;13.438;2022-07-22T01:10:38;6.43;;;5.83;;
13090;SDS011;6611;52.604;13.438;2022-07-22T01:13:10;5.87;;;5.27;;
13090;SDS011;6611;52.604;13.438;2022-07-22T01:15:42;6.23;;;5.10;;
13090;SDS011;6611;52.604;13.438;2022-07-22T01:18:15;5.90;;;5.30;;
13090;SDS011;6611;52.604;13.438;2022-07-22T01:20:48;5.20;;;4.70;;
13090;SDS011;6611;52.604;13.438;2022-07-22T01:23:20;4.97;;;4.53;;
13090;SDS011;6611;52.604;13.438;2022-07-22T01:25:52;4.97;;;4.47;;
13090;SDS011;6611;52.604;13.438;2022-07-22T01:28:24;5.67;;;5.03;;
13090;SDS011;6611;52.604;13.438;2022-07-22T01:30:56;5.87;;;4.87;;
13090;SDS011;6611;52.604;13.438;2022-07-22T01:33:28;4.70;;;4.30;;
13090;SDS011;6611;52.604;13.438;2022-07-22T01:36:04;5.17;;;4.67;;
13090;SDS011;6611;52.604;13.438;2022-07-22T01:38:37;5.50;;;4.90;;
13090;SDS011;6611;52.604;13.438;2022-07-22T01:41:09;5.43;;;4.93;;
13090;SDS011;6611;52.604;13.438;2022-07-22T01:43:41;5.03;;;4.53;;
13090;SDS011;6611;52.604;13.438;2022-07-22T01:46:13;4.90;;;4.47;;
13090;SDS011;6611;52.604;13.438;2022-07-22T01:48:47;5.53;;;5.00;;
13090;SDS011;6611;52.604;13.438;2022-07-22T01:51:20;5.87;;;4.83;;
13090;SDS011;6611;52.604;13.438;2022-07-22T01:53:52;5.10;;;4.60;;
13090;SDS011;6611;52.604;13.438;2022-07-22T01:56:24;5.57;;;4.77;;
13090;SDS011;6611;52.604;13.438;2022-07-22T01:58:56;6.23;;;4.50;;
13090;SDS011;6611;52.604;13.438;2022-07-22T02:01:28;4.63;;;4.17;;
13090;SDS011;6611;52.604;13.438;2022-07-22T02:04:00;4.57;;;4.17;;
13090;SDS011;6611;52.604;13.438;2022-07-22T02:06:33;5.20;;;4.70;;
13090;SDS011;6611;52.604;13.438;2022-07-22T02:09:05;5.93;;;4.73;;
13090;SDS011;6611;52.604;13.438;2022-07-22T02:11:37;5.27;;;4.77;;
13090;SDS011;6611;52.604;13.438;2022-07-22T02:14:09;4.70;;;4.30;;
13090;SDS011;6611;52.604;13.438;2022-07-22T02:16:41;4.50;;;3.97;;
13090;SDS011;6611;52.604;13.438;2022-07-22T02:19:13;4.43;;;4.07;;
13090;SDS011;6611;52.604;13.438;2022-07-22T02:21:47;5.53;;;4.50;;
13090;SDS011;6611;52.604;13.438;2022-07-22T02:24:19;6.60;;;4.57;;
13090;SDS011;6611;52.604;13.438;2022-07-22T02:26:51;5.07;;;4.57;;
13090;SDS011;6611;52.604;13.438;2022-07-22T02:29:23;5.13;;;4.40;;
13090;SDS011;6611;52.604;13.438;2022-07-22T02:31:56;4.83;;;4.43;;
13090;SDS011;6611;52.604;13.438;2022-07-22T02:34:28;5.07;;;4.57;;
13090;SDS011;6611;52.604;13.438;2022-07-22T02:37:01;5.83;;;4.50;;
13090;SDS011;6611;52.604;13.438;2022-07-22T02:39:33;4.67;;;4.23;;
13090;SDS011;6611;52.604;13.438;2022-07-22T02:42:05;5.77;;;4.20;;
13090;SDS011;6611;52.604;13.438;2022-07-22T02:44:37;4.67;;;4.27;;
13090;SDS011;6611;52.604;13.438;2022-07-22T02:47:10;5.07;;;4.57;;
13090;SDS011;6611;52.604;13.438;2022-07-22T02:49:42;4.97;;;4.50;;
13090;SDS011;6611;52.604;13.438;2022-07-22T02:52:15;5.40;;;4.90;;
13090;SDS011;6611;52.604;13.438;2022-07-22T02:54:47;5.47;;;4.40;;
13090;SDS011;6611;52.604;13.438;2022-07-22T02:57:19;5.60;;;5.07;;
13090;SDS011;6611;52.604;13.438;2022-07-22T02:59:51;5.57;;;5.07;;
13090;SDS011;6611;52.604;13.438;2022-07-22T03:02:23;5.77;;;5.20;;
13090;SDS011;6611;52.604;13.438;2022-07-22T03:04:55;6.13;;;5.53;;
13090;SDS011;6611;52.604;13.438;2022-07-22T03:07:29;5.97;;;5.47;;
13090;SDS011;6611;52.604;13.438;2022-07-22T03:10:01;6.00;;;5.40;;
13090;SDS011;6611;52.604;13.438;2022-07-22T03:12:34;6.07;;;5.47;;
13090;SDS011;6611;52.604;13.438;2022-07-22T03:15:06;5.87;;;5.27;;
13090;SDS011;6611;52.604;13.438;2022-07-22T03:17:38;5.40;;;4.90;;
13090;SDS011;6611;52.604;13.438;2022-07-22T03:20:11;6.33;;;5.60;;
13090;SDS011;6611;52.604;13.438;2022-07-22T03:22:44;7.00;;;5.67;;
13090;SDS011;6611;52.604;13.438;2022-07-22T03:25:16;7.70;;;5.80;;
13090;SDS011;6611;52.604;13.438;2022-07-22T03:27:48;6.20;;;5.60;;
13090;SDS011;6611;52.604;13.438;2022-07-22T03:30:20;6.03;;;5.53;;
13090;SDS011;6611;52.604;13.438;2022-07-22T03:32:52;6.17;;;5.67;;
13090;SDS011;6611;52.604;13.438;2022-07-22T03:35:25;7.10;;;6.50;;
13090;SDS011;6611;52.604;13.438;2022-07-22T03:37:58;7.33;;;5.97;;
13090;SDS011;6611;52.604;13.438;2022-07-22T03:40:30;6.90;;;6.27;;
13090;SDS011;6611;52.604;13.438;2022-07-22T03:43:02;7.67;;;6.87;;
13090;SDS011;6611;52.604;13.438;2022-07-22T03:45:34;7.17;;;6.47;;
13090;SDS011;6611;52.604;13.438;2022-07-22T03:48:06;8.00;;;7.20;;
13090;SDS011;6611;52.604;13.438;2022-07-22T03:50:38;7.70;;;6.90;;
13090;SDS011;6611;52.604;13.438;2022-07-22T03:53:12;7.63;;;6.80;;
13090;SDS011;6611;52.604;13.438;2022-07-22T03:55:44;7.30;;;6.60;;
13090;SDS011;6611;52.604;13.438;2022-07-22T03:58:16;7.53;;;6.87;;
13090;SDS011;6611;52.604;13.438;2022-07-22T04:00:48;7.73;;;7.03;;
13090;SDS011;6611;52.604;13.438;2022-07-22T04:03:20;7.73;;;6.50;;
13090;SDS011;6611;52.604;13.438;2022-07-22T04:05:52;7.20;;;6.57;;
13090;SDS011;6611;52.604;13.438;2022-07-22T04:08:26;7.03;;;6.23;;
13090;SDS011;6611;52.604;13.438;2022-07-22T04:10:58;8.30;;;6.80;;
13090;SDS011;6611;52.604;13.438;2022-07-22T04:13:30;9.23;;;7.63;;
13090;SDS011;6611;52.604;13.438;2022-07-22T04:16:02;7.90;;;7.20;;
13090;SDS011;6611;52.604;13.438;2022-07-22T04:18:34;7.87;;;7.17;;
13090;SDS011;6611;52.604;13.438;2022-07-22T04:21:06;7.60;;;6.90;;
13090;SDS011;6611;52.604;13.438;2022-07-22T04:23:40;7.13;;;6.43;;
13090;SDS011;6611;52.604;13.438;2022-07-22T04:26:12;10.47;;;7.50;;
13090;SDS011;6611;52.604;13.438;2022-07-22T04:28:44;7.90;;;7.13;;
13090;SDS011;6611;52.604;13.438;2022-07-22T04:31:16;8.43;;;6.67;;
13090;SDS011;6611;52.604;13.438;2022-07-22T04:33:48;8.17;;;7.43;;
13090;SDS011;6611;52.604;13.438;2022-07-22T04:36:20;8.43;;;7.63;;
13090;SDS011;6611;52.604;13.438;2022-07-22T04:38:54;8.57;;;7.83;;
13090;SDS011;6611;52.604;13.438;2022-07-22T04:41:25;8.03;;;7.33;;
13090;SDS011;6611;52.604;13.438;2022-07-22T04:43:57;9.40;;;7.77;;
13090;SDS011;6611;52.604;13.438;2022-07-22T04:46:29;13.83;;;8.37;;
13090;SDS011;6611;52.604;13.438;2022-07-22T04:49:01;10.23;;;8.63;;
13090;SDS011;6611;52.604;13.438;2022-07-22T04:51:34;9.60;;;8.70;;
13090;SDS011;6611;52.604;13.438;2022-07-22T04:54:07;8.87;;;8.07;;
13090;SDS011;6611;52.604;13.438;2022-07-22T04:56:39;8.97;;;8.07;;
13090;SDS011;6611;52.604;13.438;2022-07-22T04:59:11;11.17;;;9.27;;
13090;SDS011;6611;52.604;13.438;2022-07-22T05:01:43;9.47;;;8.57;;
13090;SDS011;6611;52.604;13.438;2022-07-22T05:04:15;9.07;;;8.10;;
13090;SDS011;6611;52.604;13.438;2022-07-22T05:06:47;10.10;;;9.03;;
13090;SDS011;6611;52.604;13.438;2022-07-22T05:09:21;10.17;;;9.13;;
13090;SDS011;6611;52.604;13.438;2022-07-22T05:11:52;11.20;;;10.10;;
13090;SDS011;6611;52.604;13.438;2022-07-22T05:14:25;9.70;;;8.80;;
13090;SDS011;6611;52.604;13.438;2022-07-22T05:16:57;10.10;;;9.10;;
13090;SDS011;6611;52.604;13.438;2022-07-22T05:19:29;9.70;;;8.80;;
13090;SDS011;6611;52.604;13.438;2022-07-22T05:22:01;10.90;;;9.80;;
13090;SDS011;6611;52.604;13.438;2022-07-22T05:24:34;11.30;;;10.20;;
13090;SDS011;6611;52.604;13.438;2022-07-22T05:27:06;11.97;;;10.80;;
13090;SDS011;6611;52.604;13.438;2022-07-22T05:29:38;10.93;;;9.93;;
13090;SDS011;6611;52.604;13.438;2022-07-22T05:32:10;10.00;;;9.03;;
13090;SDS011;6611;52.604;13.438;2022-07-22T05:34:43;11.40;;;10.30;;
13090;SDS011;6611;52.604;13.438;2022-07-22T05:37:15;11.87;;;10.77;;
13090;SDS011;6611;52.604;13.438;2022-07-22T05:39:48;10.17;;;9.27;;
13090;SDS011;6611;52.604;13.438;2022-07-22T05:42:20;11.03;;;9.73;;
13090;SDS011;6611;52.604;13.438;2022-07-22T05:44:52;9.73;;;8.83;;
13090;SDS011;6611;52.604;13.438;2022-07-22T05:47:24;11.43;;;10.43;;
13090;SDS011;6611;52.604;13.438;2022-07-22T05:49:56;10.70;;;9.70;;
13090;SDS011;6611;52.604;13.438;2022-07-22T05:52:28;9.83;;;8.93;;
13090;SDS011;6611;52.604;13.438;2022-07-22T05:55:02;9.90;;;8.97;;
13090;SDS011;6611;52.604;13.438;2022-07-22T05:57:34;11.33;;;10.17;;
13090;SDS011;6611;52.604;13.438;2022-07-22T06:00:07;11.03;;;9.97;;
13090;SDS011;6611;52.604;13.438;2022-07-22T06:02:39;11.23;;;10.20;;
13090;SDS011;6611;52.604;13.438;2022-07-22T06:05:12;11.23;;;9.93;;
13090;SDS011;6611;52.604;13.438;2022-07-22T06:07:44;9.93;;;8.93;;
13090;SDS011;6611;52.604;13.438;2022-07-22T06:10:17;10.73;;;9.63;;
13090;SDS011;6611;52.604;13.438;2022-07-22T06:12:49;11.13;;;10.10;;
13090;SDS011;6611;52.604;13.438;2022-07-22T06:15:21;9.80;;;8.90;;
13090;SDS011;6611;52.604;13.438;2022-07-22T06:17:53;10.13;;;9.13;;
13090;SDS011;6611;52.604;13.438;2022-07-22T06:20:26;10.47;;;9.30;;
13090;SDS011;6611;52.604;13.438;2022-07-22T06:22:58;10.20;;;9.00;;
13090;SDS011;6611;52.604;13.438;2022-07-22T06:25:31;10.33;;;9.37;;
13090;SDS011;6611;52.604;13.438;2022-07-22T06:28:03;9.70;;;8.80;;
13090;SDS011;6611;52.604;13.438;2022-07-22T06:30:35;10.20;;;9.30;;
13090;SDS011;6611;52.604;13.438;2022-07-22T06:33:09;10.87;;;9.77;;
13090;SDS011;6611;52.604;13.438;2022-07-22T06:35:41;8.63;;;7.93;;
13090;SDS011;6611;52.604;13.438;2022-07-22T06:38:13;8.40;;;7.63;;
13090;SDS011;6611;52.604;13.438;2022-07-22T06:40:47;10.10;;;9.00;;
13090;SDS011;6611;52.604;13.438;2022-07-22T06:43:19;8.80;;;8.00;;
13090;SDS011;6611;52.604;13.438;2022-07-22T06:45:51;8.90;;;8.17;;
13090;SDS011;6611;52.604;13.438;2022-07-22T06:48:23;9.87;;;8.97;;
13090;SDS011;6611;52.604;13.438;2022-07-22T06:50:55;10.23;;;9.33;;
13090;SDS011;6611;52.604;13.438;2022-07-22T06:53:27;9.57;;;8.67;;
13090;SDS011;6611;52.604;13.438;2022-07-22T06:56:01;9.90;;;9.10;;
13090;SDS011;6611;52.604;13.438;2022-07-22T06:58:33;9.80;;;8.80;;
13090;SDS011;6611;52.604;13.438;2022-07-22T07:01:05;9.33;;;8.53;;
13090;SDS011;6611;52.604;13.438;2022-07-22T07:03:37;10.47;;;9.50;;
13090;SDS011;6611;52.604;13.438;2022-07-22T07:06:10;8.57;;;7.83;;
13090;SDS011;6611;52.604;13.438;2022-07-22T07:08:43;9.17;;;8.37;;
13090;SDS011;6611;52.604;13.438;2022-07-22T07:11:16;10.07;;;9.13;;
13090;SDS011;6611;52.604;13.438;2022-07-22T07:13:48;8.90;;;8.10;;
13090;SDS011;6611;52.604;13.438;2022-07-22T07:16:20;9.20;;;8.40;;
13090;SDS011;6611;52.604;13.438;2022-07-22T07:18:52;8.93;;;7.50;;
13090;SDS011;6611;52.604;13.438;2022-07-22T07:21:24;8.83;;;7.93;;
13090;SDS011;6611;52.604;13.438;2022-07-22T07:23:57;9.03;;;8.23;;
13090;SDS011;6611;52.604;13.438;2022-07-22T07:26:31;8.77;;;7.93;;
13090;SDS011;6611;52.604;13.438;2022-07-22T07:29:03;9.33;;;8.43;;
13090;SDS011;6611;52.604;13.438;2022-07-22T07:31:36;7.90;;;7.20;;
13090;SDS011;6611;52.604;13.438;2022-07-22T07:34:08;8.87;;;7.97;;
13090;SDS011;6611;52.604;13.438;2022-07-22T07:36:40;9.43;;;8.53;;
13090;SDS011;6611;52.604;13.438;2022-07-22T07:39:12;10.13;;;9.17;;
13090;SDS011;6611;52.604;13.438;2022-07-22T07:41:46;8.60;;;7.90;;
13090;SDS011;6611;52.604;13.438;2022-07-22T07:44:17;7.50;;;6.80;;
13090;SDS011;6611;52.604;13.438;2022-07-22T07:46:50;7.67;;;6.60;;
13090;SDS011;6611;52.604;13.438;2022-07-22T07:49:22;8.47;;;7.73;;
13090;SDS011;6611;52.604;13.438;2022-07-22T07:51:54;8.83;;;8.03;;
13090;SDS011;6611;52.604;13.438;2022-07-22T07:54:26;7.33;;;6.73;;
13090;SDS011;6611;52.604;13.438;2022-07-22T07:56:59;7.10;;;6.50;;
13090;SDS011;6611;52.604;13.438;2022-07-22T07:59:31;7.33;;;6.67;;
13090;SDS011;6611;52.604;13.438;2022-07-22T08:02:03;6.53;;;5.90;;
13090;SDS011;6611;52.604;13.438;2022-07-22T08:04:36;6.50;;;5.90;;
13090;SDS011;6611;52.604;13.438;2022-07-22T08:07:08;6.83;;;6.23;;
13090;SDS011;6611;52.604;13.438;2022-07-22T08:09:40;7.10;;;6.40;;
13090;SDS011;6611;52.604;13.438;2022-07-22T08:12:13;6.40;;;5.90;;
13090;SDS011;6611;52.604;13.438;2022-07-22T08:14:45;6.63;;;6.03;;
13090;SDS011;6611;52.604;13.438;2022-07-22T08:17:17;6.20;;;5.63;;
13090;SDS011;6611;52.604;13.438;2022-07-22T08:19:49;6.00;;;5.20;;
13090;SDS011;6611;52.604;13.438;2022-07-22T08:22:21;5.23;;;4.83;;
13090;SDS011;6611;52.604;13.438;2022-07-22T08:24:53;5.87;;;5.33;;
13090;SDS011;6611;52.604;13.438;2022-07-22T08:27:27;5.67;;;5.20;;
13090;SDS011;6611;52.604;13.438;2022-07-22T08:29:59;5.10;;;4.70;;
13090;SDS011;6611;52.604;13.438;2022-07-22T08:32:34;4.47;;;4.07;;
13090;SDS011;6611;52.604;13.438;2022-07-22T08:35:06;4.33;;;4.03;;
13090;SDS011;6611;52.604;13.438;2022-07-22T08:37:40;5.03;;;4.53;;
13090;SDS011;6611;52.604;13.438;2022-07-22T08:40:12;4.23;;;3.83;;
13090;SDS011;6611;52.604;13.438;2022-07-22T08:42:47;4.17;;;3.83;;
13090;SDS011;6611;52.604;13.438;2022-07-22T08:45:19;5.10;;;4.70;;
13090;SDS011;6611;52.604;13.438;2022-07-22T08:47:53;5.77;;;4.60;;
13090;SDS011;6611;52.604;13.438;2022-07-22T08:50:25;4.63;;;4.23;;
13090;SDS011;6611;52.604;13.438;2022-07-22T08:52:57;4.77;;;4.37;;
13090;SDS011;6611;52.604;13.438;2022-07-22T08:55:29;5.00;;;4.50;;
13090;SDS011;6611;52.604;13.438;2022-07-22T08:58:02;4.60;;;4.20;;
13090;SDS011;6611;52.604;13.438;2022-07-22T09:00:34;4.97;;;4.37;;
13090;SDS011;6611;52.604;13.438;2022-07-22T09:03:16;4.90;;;4.50;;
13090;SDS011;6611;52.604;13.438;2022-07-22T09:05:50;3.80;;;3.40;;
13090;SDS011;6611;52.604;13.438;2022-07-22T09:08:22;4.80;;;4.40;;
13090;SDS011;6611;52.604;13.438;2022-07-22T09:10:55;5.57;;;4.10;;
13090;SDS011;6611;52.604;13.438;2022-07-22T09:13:28;3.90;;;3.60;;
13090;SDS011;6611;52.604;13.438;2022-07-22T09:16:04;4.40;;;4.10;;
13090;SDS011;6611;52.604;13.438;2022-07-22T09:18:46;4.63;;;4.00;;
13090;SDS011;6611;52.604;13.438;2022-07-22T09:21:20;4.13;;;3.80;;
13090;SDS011;6611;52.604;13.438;2022-07-22T09:23:52;4.30;;;4.00;;
13090;SDS011;6611;52.604;13.438;2022-07-22T09:26:31;4.50;;;4.10;;
13090;SDS011;6611;52.604;13.438;2022-07-22T09:29:05;4.77;;;4.37;;
13090;SDS011;6611;52.604;13.438;2022-07-22T09:31:38;5.60;;;5.10;;
13090;SDS011;6611;52.604;13.438;2022-07-22T09:34:10;5.30;;;4.80;;
13090;SDS011;6611;52.604;13.438;2022-07-22T09:36:58;5.40;;;5.00;;
13090;SDS011;6611;52.604;13.438;2022-07-22T09:39:31;5.10;;;4.70;;
13090;SDS011;6611;52.604;13.438;2022-07-22T09:42:05;5.33;;;4.83;;
13090;SDS011;6611;52.604;13.438;2022-07-22T09:44:39;5.83;;;5.40;;
13090;SDS011;6611;52.604;13.438;2022-07-22T09:47:24;6.13;;;5.63;;
13090;SDS011;6611;52.604;13.438;2022-07-22T09:49:58;5.43;;;5.03;;
13090;SDS011;6611;52.604;13.438;2022-07-22T09:52:30;5.63;;;5.17;;
13090;SDS011;6611;52.604;13.438;2022-07-22T09:55:02;5.33;;;4.93;;
13090;SDS011;6611;52.604;13.438;2022-07-22T09:57:35;4.83;;;4.37;;
13090;SDS011;6611;52.604;13.438;2022-07-22T10:00:09;5.10;;;4.60;;
13090;SDS011;6611;52.604;13.438;2022-07-22T10:02:45;5.17;;;4.43;;
13090;SDS011;6611;52.604;13.438;2022-07-22T10:05:18;4.43;;;4.13;;
13090;SDS011;6611;52.604;13.438;2022-07-22T10:07:52;5.17;;;4.77;;
13090;SDS011;6611;52.604;13.438;2022-07-22T10:10:26;5.77;;;4.57;;
13090;SDS011;6611;52.604;13.438;2022-07-22T10:13:00;5.77;;;3.30;;
13090;SDS011;6611;52.604;13.438;2022-07-22T10:15:35;2.73;;;2.53;;
13090;SDS011;6611;52.604;13.438;2022-07-22T10:18:08;3.23;;;2.97;;
13090;SDS011;6611;52.604;13.438;2022-07-22T10:20:45;2.80;;;2.60;;
13090;SDS011;6611;52.604;13.438;2022-07-22T10:23:17;2.70;;;2.50;;
13090;SDS011;6611;52.604;13.438;2022-07-22T10:25:50;2.37;;;2.17;;
13090;SDS011;6611;52.604;13.438;2022-07-22T10:28:23;2.40;;;2.20;;
13090;SDS011;6611;52.604;13.438;2022-07-22T10:33:56;2.20;;;2.10;;
13090;SDS011;6611;52.604;13.438;2022-07-22T10:36:29;1.93;;;1.83;;
13090;SDS011;6611;52.604;13.438;2022-07-22T10:39:04;1.90;;;1.80;;
13090;SDS011;6611;52.604;13.438;2022-07-22T10:41:38;2.07;;;1.90;;
13090;SDS011;6611;52.604;13.438;2022-07-22T10:44:11;2.10;;;1.90;;
13090;SDS011;6611;52.604;13.438;2022-07-22T10:46:48;1.90;;;1.80;;
13090;SDS011;6611;52.604;13.438;2022-07-22T10:49:24;2.10;;;2.00;;
13090;SDS011;6611;52.604;13.438;2022-07-22T10:52:10;2.33;;;2.20;;
13090;SDS011;6611;52.604;13.438;2022-07-22T10:57:47;2.40;;;2.20;;
13090;SDS011;6611;52.604;13.438;2022-07-22T11:00:19;2.53;;;2.33;;
13090;SDS011;6611;52.604;13.438;2022-07-22T11:02:53;2.80;;;2.60;;
13090;SDS011;6611;52.604;13.438;2022-07-22T11:05:25;3.80;;;3.50;;
13090;SDS011;6611;52.604;13.438;2022-07-22T11:07:58;3.43;;;3.23;;
13090;SDS011;6611;52.604;13.438;2022-07-22T11:10:30;3.60;;;3.30;;
13090;SDS011;6611;52.604;13.438;2022-07-22T11:13:02;3.87;;;3.57;;
13090;SDS011;6611;52.604;13.438;2022-07-22T11:15:34;4.07;;;3.77;;
13090;SDS011;6611;52.604;13.438;2022-07-22T11:18:08;3.83;;;3.53;;
13090;SDS011;6611;52.604;13.438;2022-07-22T11:20:40;4.37;;;3.80;;
13090;SDS011;6611;52.604;13.438;2022-07-22T11:23:14;3.73;;;3.43;;
13090;SDS011;6611;52.604;13.438;2022-07-22T11:25:47;3.57;;;3.30;;
13090;SDS011;6611;52.604;13.438;2022-07-22T11:28:19;3.90;;;3.60;;
13090;SDS011;6611;52.604;13.438;2022-07-22T11:31:04;5.23;;;4.30;;
13090;SDS011;6611;52.604;13.438;2022-07-22T11:33:37;4.43;;;4.13;;
13090;SDS011;6611;52.604;13.438;2022-07-22T11:36:09;4.30;;;3.90;;
13090;SDS011;6611;52.604;13.438;2022-07-22T11:38:46;4.30;;;3.90;;
13090;SDS011;6611;52.604;13.438;2022-07-22T11:41:19;4.60;;;4.27;;
13090;SDS011;6611;52.604;13.438;2022-07-22T11:43:52;5.17;;;3.67;;
13090;SDS011;6611;52.604;13.438;2022-07-22T11:46:24;4.17;;;3.80;;
13090;SDS011;6611;52.604;13.438;2022-07-22T11:48:58;3.83;;;3.53;;
13090;SDS011;6611;52.604;13.438;2022-07-22T11:51:30;4.00;;;3.70;;
13090;SDS011;6611;52.604;13.438;2022-07-22T11:54:03;3.57;;;3.37;;
13090;SDS011;6611;52.604;13.438;2022-07-22T11:56:35;3.63;;;3.33;;
13090;SDS011;6611;52.604;13.438;2022-07-22T11:59:08;3.30;;;3.10;;
13090;SDS011;6611;52.604;13.438;2022-07-22T12:01:44;3.63;;;3.40;;
13090;SDS011;6611;52.604;13.438;2022-07-22T12:04:19;3.27;;;3.00;;
13090;SDS011;6611;52.604;13.438;2022-07-22T12:06:53;3.70;;;3.40;;
13090;SDS011;6611;52.604;13.438;2022-07-22T12:09:26;3.20;;;3.00;;
13090;SDS011;6611;52.604;13.438;2022-07-22T12:12:01;4.30;;;4.00;;
13090;SDS011;6611;52.604;13.438;2022-07-22T12:14:34;3.50;;;3.30;;
13090;SDS011;6611;52.604;13.438;2022-07-22T12:17:07;3.73;;;3.43;;
13090;SDS011;6611;52.604;13.438;2022-07-22T12:19:42;3.63;;;3.33;;
13090;SDS011;6611;52.604;13.438;2022-07-22T12:22:19;3.90;;;3.60;;
13090;SDS011;6611;52.604;13.438;2022-07-22T12:24:59;3.93;;;3.60;;
13090;SDS011;6611;52.604;13.438;2022-07-22T12:27:32;3.50;;;3.20;;
13090;SDS011;6611;52.604;13.438;2022-07-22T12:30:11;3.47;;;3.27;;
13090;SDS011;6611;52.604;13.438;2022-07-22T12:32:46;2.83;;;2.63;;
13090;SDS011;6611;52.604;13.438;2022-07-22T12:35:19;3.20;;;2.80;;
13090;SDS011;6611;52.604;13.438;2022-07-22T12:37:51;3.00;;;2.70;;
13090;SDS011;6611;52.604;13.438;2022-07-22T12:40:23;4.10;;;2.80;;
13090;SDS011;6611;52.604;13.438;2022-07-22T12:42:59;3.70;;;3.37;;
13090;SDS011;6611;52.604;13.438;2022-07-22T12:45:32;3.10;;;2.90;;
13090;SDS011;6611;52.604;13.438;2022-07-22T12:48:07;2.57;;;2.37;;
13090;SDS011;6611;52.604;13.438;2022-07-22T12:50:42;2.83;;;2.13;;
13090;SDS011;6611;52.604;13.438;2022-07-22T12:53:15;3.17;;;2.50;;
13090;SDS011;6611;52.604;13.438;2022-07-22T12:55:48;2.40;;;2.30;;
13090;SDS011;6611;52.604;13.438;2022-07-22T12:58:22;2.47;;;2.27;;
13090;SDS011;6611;52.604;13.438;2022-07-22T13:00:58;2.27;;;2.07;;
13090;SDS011;6611;52.604;13.438;2022-07-22T13:03:32;2.60;;;2.43;;
13090;SDS011;6611;52.604;13.438;2022-07-22T13:06:06;3.27;;;2.13;;
13090;SDS011;6611;52.604;13.438;2022-07-22T13:08:40;3.13;;;1.97;;
13090;SDS011;6611;52.604;13.438;2022-07-22T13:11:12;2.20;;;2.10;;
13090;SDS011;6611;52.604;13.438;2022-07-22T13:13:44;2.40;;;1.93;;
13090;SDS011;6611;52.604;13.438;2022-07-22T13:16:17;2.10;;;2.00;;
13090;SDS011;6611;52.604;13.438;2022-07-22T13:18:49;2.50;;;2.30;;
13090;SDS011;6611;52.604;13.438;2022-07-22T13:21:23;2.53;;;2.23;;
13090;SDS011;6611;52.604;13.438;2022-07-22T13:23:55;2.53;;;2.33;;
13090;SDS011;6611;52.604;13.438;2022-07-22T13:26:27;2.70;;;2.03;;
13090;SDS011;6611;52.604;13.438;2022-07-22T13:28:58;2.67;;;2.20;;
13090;SDS011;6611;52.604;13.438;2022-07-22T13:31:31;2.60;;;2.40;;
13090;SDS011;6611;52.604;13.438;2022-07-22T13:34:03;2.20;;;2.00;;
13090;SDS011;6611;52.604;13.438;2022-07-22T13:36:36;2.37;;;2.17;;
13090;SDS011;6611;52.604;13.438;2022-07-22T13:39:08;1.77;;;1.63;;
13090;SDS011;6611;52.604;13.438;2022-07-22T13:41:40;2.43;;;2.23;;
13090;SDS011;6611;52.604;13.438;2022-07-22T13:44:12;2.63;;;1.80;;
13090;SDS011;6611;52.604;13.438;2022-07-22T13:46:44;1.77;;;1.67;;
13090;SDS011;6611;52.604;13.438;2022-07-22T13:49:16;1.70;;;1.60;;
13090;SDS011;6611;52.604;13.438;2022-07-22T13:51:50;1.67;;;1.57;;
13090;SDS011;6611;52.604;13.438;2022-07-22T13:54:22;1.73;;;1.57;;
13090;SDS011;6611;52.604;13.438;2022-07-22T13:56:54;1.77;;;1.67;;
13090;SDS011;6611;52.604;13.438;2022-07-22T13:59:26;1.70;;;1.60;;
13090;SDS011;6611;52.604;13.438;2022-07-22T14:01:59;2.03;;;1.60;;
13090;SDS011;6611;52.604;13.438;2022-07-22T14:04:32;5.20;;;1.80;;
13090;SDS011;6611;52.604;13.438;2022-07-22T14:07:05;1.50;;;1.40;;
13090;SDS011;6611;52.604;13.438;2022-07-22T14:09:37;2.73;;;1.70;;
13090;SDS011;6611;52.604;13.438;2022-07-22T14:12:09;2.43;;;1.97;;
13090;SDS011;6611;52.604;13.438;2022-07-22T14:14:42;1.70;;;1.60;;
13090;SDS011;6611;52.604;13.438;2022-07-22T14:17:13;1.83;;;1.67;;
13090;SDS011;6611;52.604;13.438;2022-07-22T14:19:46;1.60;;;1.50;;
13090;SDS011;6611;52.604;13.438;2022-07-22T14:22:19;2.30;;;1.40;;
13090;SDS011;6611;52.604;13.438;2022-07-22T14:24:51;1.67;;;1.40;;
13090;SDS011;6611;52.604;13.438;2022-07-22T14:27:23;2.87;;;1.50;;
13090;SDS011;6611;52.604;13.438;2022-07-22T14:29:55;1.47;;;1.30;;
13090;SDS011;6611;52.604;13.438;2022-07-22T14:32:27;1.53;;;1.30;;
13090;SDS011;6611;52.604;13.438;2022-07-22T14:35:00;1.83;;;1.30;;
13090;SDS011;6611;52.604;13.438;2022-07-22T14:37:33;2.23;;;1.30;;
13090;SDS011;6611;52.604;13.438;2022-07-22T14:40:06;1.47;;;1.30;;
13090;SDS011;6611;52.604;13.438;2022-07-22T14:42:38;2.17;;;1.60;;
13090;SDS011;6611;52.604;13.438;2022-07-22T14:45:10;1.83;;;1.30;;
13090;SDS011;6611;52.604;13.438;2022-07-22T14:47:42;1.50;;;1.40;;
13090;SDS011;6611;52.604;13.438;2022-07-22T14:50:14;1.57;;;1.20;;
13090;SDS011;6611;52.604;13.438;2022-07-22T14:52:48;1.87;;;1.37;;
13090;SDS011;6611;52.604;13.438;2022-07-22T14:55:20;1.50;;;1.40;;
13090;SDS011;6611;52.604;13.438;2022-07-22T14:57:52;1.50;;;1.40;;
13090;SDS011;6611;52.604;13.438;2022-07-22T15:00:24;1.30;;;1.20;;
13090;SDS011;6611;52.604;13.438;2022-07-22T15:02:56;1.63;;;1.53;;
13090;SDS011;6611;52.604;13.438;2022-07-22T15:05:29;1.40;;;1.30;;
13090;SDS011;6611;52.604;13.438;2022-07-22T15:08:02;1.63;;;1.20;;
13090;SDS011;6611;52.604;13.438;2022-07-22T15:10:34;1.30;;;1.10;;
13090;SDS011;6611;52.604;13.438;2022-07-22T15:13:07;1.40;;;1.30;;
13090;SDS011;6611;52.604;13.438;2022-07-22T15:15:39;2.43;;;1.30;;
13090;SDS011;6611;52.604;13.438;2022-07-22T15:18:11;1.50;;;1.30;;
13090;SDS011;6611;52.604;13.438;2022-07-22T15:20:43;1.60;;;1.50;;
13090;SDS011;6611;52.604;13.438;2022-07-22T15:23:17;1.60;;;1.30;;
13090;SDS011;6611;52.604;13.438;2022-07-22T15:25:49;1.90;;;1.50;;